Sanford, Texas
Current Conditions -  °F | °C
As of 4:51 AM on Friday 28 Nov 2014 (Local Time) from KBGD Reporting Station
Clear Clear  
Wind Chill: 38°   Ceiling: Unl
Heat Index: 44°   Visibility: 10mi
Dew Point: 28°   Wind: 12mph
Humidity: 53%   Direction: 240°WSW
Pressure: 30.05"   Gusts: NA
Location:  35.7°N, 101.53°W
Report Text: KBGD 281051Z AUTO 24010KT 10SM CLR 07/M02 A3005 RMK AO2 SLP162 T00671022
Loading
Personal Weather Stations






























Interactive Weather Map New forecast layout! Learn more

10-Day Weather Forecast

Advertisements
Track Severe Weather on mobile